Scroll down
FLIGHT INFORMATION
British Airways

BAW216

At Arrival Gate

KIAD
 EGLL
DATE: 2018-12-26
GATE: B44
GATE DEPARTURE: 23:22
TAKEOFF: 23:35
DATE: 2018-12-27
GATE: 556
LANDING: 05:57
GATE ARRIVAL: 06:04
FLIGHT DATA
Crew: 
Speed: 
513 kts
Altitude: 
39,009 ft
Stage Length: 
3,186.6 nm
Block Time: 
6.7 hrs
Flight Time: 
6.4 hrs
Fuel Used: 
140,850 lb
Cleared Route: RIGNZ JCOBY GRIIM SOOKI SWANN BROSS STIKY OOD DAVYS BRAND RBV YAHOO VITOL NANSO RAFIN 4550N 4740N 4930N 5020N SOMAX ATSUR LESLU MERLY ASRAX SWANY ABDUK NUMPO OKESI BEDEK NIGIT D271L OCK
TRACK DATA
50,000 ft 1,000 kts
AIRCRAFT INFO AND CUMULATIVE STATS
Aircraft Type: 
B744
Registration: 
SELCAL: 
CPQS
MSN/LN: 
25823 / 1195
Operator: 
Total Flights: 
2
Total Block Time: 
7.5 hrs
Total Flight Time: 
6.9 hrs
Total Fuel Time: 
158,701 lb
DATALINK LOG | Newest first | Current as of: 2020-11-29 22:28:48
LABEL SEQUENCE CONTENT Dn/Up
QD042406:04 44▼ Dn
QC575505:57▼ Dn
2U1919EGLL 270450Z 24001KT 3000 1200E R27L/P1500 BR VCFG NSC 04/04 Q1026 TEMPO 0800 FG▲ Up
2S1600EGLL▼ Dn
GA5341GATE 556▲ Up
GR5304EGLL▼ Dn
QB355923:35▼ Dn
QA223123:22 184.8▼ Dn
2U1123KIAD 262252Z 17004KT 10SM CLR 04/M02 A3052 RMK AO2 SLP337 T00441017▲ Up
2S0824KIAD▼ Dn


AIRCRAFT HISTORY
FLIGHT DATE FLIGHT NO. ORIGIN DESTINATION CLEARED ROUTE BLOCK TIME FLIGHT TIME FUEL USED PILOT
2019-02-24BAW224EGLL EGCC EGLL ULTIB HEMEL BUZAD OLNEY WELIN AKUPA TIMPO ELVOS TNT EGCC0.9 hrs0.5 hrs17,851 lb-HIDDEN-
2018-12-26BAW216KIAD EGLL RIGNZ JCOBY GRIIM SOOKI SWANN BROSS STIKY OOD DAVYS BRAND RBV YAHOO VITOL NANSO RAFIN 4550N 4740N 4930N 5020N SOMAX ATSUR LESLU MERLY ASRAX SWANY ABDUK NUMPO OKESI BEDEK NIGIT D271L OCK6.7 hrs6.4 hrs140,850 lbKyle Rodgers